sensor_id;sensor_type;location;lat;lon;timestamp;temperature;humidity
17988;DHT22;9119;50.932;5.342;2023-07-09T00:02:21;25.50;99.90
17988;DHT22;9119;50.932;5.342;2023-07-09T00:04:47;25.60;99.90
17988;DHT22;9119;50.932;5.342;2023-07-09T00:07:29;25.50;99.90
17988;DHT22;9119;50.932;5.342;2023-07-09T00:09:55;25.50;99.90
17988;DHT22;9119;50.932;5.342;2023-07-09T00:12:22;25.50;99.90
17988;DHT22;9119;50.932;5.342;2023-07-09T00:14:48;25.50;99.90
17988;DHT22;9119;50.932;5.342;2023-07-09T00:17:26;25.40;99.90
17988;DHT22;9119;50.932;5.342;2023-07-09T00:19:52;25.40;99.90
17988;DHT22;9119;50.932;5.342;2023-07-09T00:22:18;25.30;99.90
17988;DHT22;9119;50.932;5.342;2023-07-09T00:24:45;25.30;99.90
17988;DHT22;9119;50.932;5.342;2023-07-09T00:27:13;25.30;99.90
17988;DHT22;9119;50.932;5.342;2023-07-09T00:29:43;25.30;99.90
17988;DHT22;9119;50.932;5.342;2023-07-09T00:32:18;25.20;99.90
17988;DHT22;9119;50.932;5.342;2023-07-09T00:34:46;25.20;99.90
17988;DHT22;9119;50.932;5.342;2023-07-09T00:37:16;25.20;99.90
17988;DHT22;9119;50.932;5.342;2023-07-09T00:39:43;25.20;99.90
17988;DHT22;9119;50.932;5.342;2023-07-09T00:42:17;25.20;99.90
17988;DHT22;9119;50.932;5.342;2023-07-09T00:44:45;25.10;99.90
17988;DHT22;9119;50.932;5.342;2023-07-09T00:49:44;25.00;99.90
17988;DHT22;9119;50.932;5.342;2023-07-09T00:52:42;25.00;99.90
17988;DHT22;9119;50.932;5.342;2023-07-09T00:55:13;25.10;99.90
17988;DHT22;9119;50.932;5.342;2023-07-09T00:57:43;25.10;99.90
17988;DHT22;9119;50.932;5.342;2023-07-09T01:00:11;25.10;99.90
17988;DHT22;9119;50.932;5.342;2023-07-09T01:02:41;25.10;99.90
17988;DHT22;9119;50.932;5.342;2023-07-09T01:05:11;25.00;99.90
17988;DHT22;9119;50.932;5.342;2023-07-09T01:07:39;25.00;99.90
17988;DHT22;9119;50.932;5.342;2023-07-09T01:10:04;25.00;99.90
17988;DHT22;9119;50.932;5.342;2023-07-09T01:12:30;24.90;99.90
17988;DHT22;9119;50.932;5.342;2023-07-09T01:14:57;25.00;99.90
17988;DHT22;9119;50.932;5.342;2023-07-09T01:17:28;25.00;99.90
17988;DHT22;9119;50.932;5.342;2023-07-09T01:19:55;25.00;99.90
17988;DHT22;9119;50.932;5.342;2023-07-09T01:22:22;25.00;99.90
17988;DHT22;9119;50.932;5.342;2023-07-09T01:27:18;24.80;99.90
17988;DHT22;9119;50.932;5.342;2023-07-09T01:29:45;24.80;99.90
17988;DHT22;9119;50.932;5.342;2023-07-09T01:32:18;24.80;99.90
17988;DHT22;9119;50.932;5.342;2023-07-09T01:34:46;24.90;99.90
17988;DHT22;9119;50.932;5.342;2023-07-09T01:37:19;24.90;99.90
17988;DHT22;9119;50.932;5.342;2023-07-09T01:39:48;25.00;99.90
17988;DHT22;9119;50.932;5.342;2023-07-09T01:42:15;25.00;99.90
17988;DHT22;9119;50.932;5.342;2023-07-09T01:44:43;24.90;99.90
17988;DHT22;9119;50.932;5.342;2023-07-09T01:47:09;25.00;99.90
17988;DHT22;9119;50.932;5.342;2023-07-09T01:49:35;25.00;99.90
17988;DHT22;9119;50.932;5.342;2023-07-09T01:52:02;24.90;99.90
17988;DHT22;9119;50.932;5.342;2023-07-09T01:54:30;24.90;99.90
17988;DHT22;9119;50.932;5.342;2023-07-09T01:57:13;24.90;99.90
17988;DHT22;9119;50.932;5.342;2023-07-09T01:59:39;24.80;99.90
17988;DHT22;9119;50.932;5.342;2023-07-09T02:02:08;24.80;99.90
17988;DHT22;9119;50.932;5.342;2023-07-09T02:04:33;24.60;99.90
17988;DHT22;9119;50.932;5.342;2023-07-09T02:06:59;24.70;99.90
17988;DHT22;9119;50.932;5.342;2023-07-09T02:09:25;24.60;99.90
17988;DHT22;9119;50.932;5.342;2023-07-09T02:11:50;24.60;99.90
17988;DHT22;9119;50.932;5.342;2023-07-09T02:14:16;24.60;99.90
17988;DHT22;9119;50.932;5.342;2023-07-09T02:16:42;24.50;99.90
17988;DHT22;9119;50.932;5.342;2023-07-09T02:19:08;24.60;99.90
17988;DHT22;9119;50.932;5.342;2023-07-09T02:21:35;24.60;99.90
17988;DHT22;9119;50.932;5.342;2023-07-09T02:24:00;24.50;99.90
17988;DHT22;9119;50.932;5.342;2023-07-09T02:26:26;24.50;99.90
17988;DHT22;9119;50.932;5.342;2023-07-09T02:28:51;24.60;99.90
17988;DHT22;9119;50.932;5.342;2023-07-09T02:31:17;24.60;99.90
17988;DHT22;9119;50.932;5.342;2023-07-09T02:33:43;24.60;99.90
17988;DHT22;9119;50.932;5.342;2023-07-09T02:36:08;24.50;99.90
17988;DHT22;9119;50.932;5.342;2023-07-09T02:38:34;24.50;99.90
17988;DHT22;9119;50.932;5.342;2023-07-09T02:41:00;24.50;99.90
17988;DHT22;9119;50.932;5.342;2023-07-09T02:43:26;24.60;99.90
17988;DHT22;9119;50.932;5.342;2023-07-09T02:45:51;24.50;99.90
17988;DHT22;9119;50.932;5.342;2023-07-09T02:48:17;24.50;99.90
17988;DHT22;9119;50.932;5.342;2023-07-09T02:50:43;24.50;99.90
17988;DHT22;9119;50.932;5.342;2023-07-09T02:53:08;24.50;99.90
17988;DHT22;9119;50.932;5.342;2023-07-09T02:55:34;24.40;99.90
17988;DHT22;9119;50.932;5.342;2023-07-09T02:58:00;24.40;99.90
17988;DHT22;9119;50.932;5.342;2023-07-09T03:00:26;24.30;99.90
17988;DHT22;9119;50.932;5.342;2023-07-09T03:02:51;24.30;99.90
17988;DHT22;9119;50.932;5.342;2023-07-09T03:05:17;24.20;99.90
17988;DHT22;9119;50.932;5.342;2023-07-09T03:07:43;24.20;99.90
17988;DHT22;9119;50.932;5.342;2023-07-09T03:10:08;24.20;99.90
17988;DHT22;9119;50.932;5.342;2023-07-09T03:12:34;24.20;99.90
17988;DHT22;9119;50.932;5.342;2023-07-09T03:15:00;24.10;99.90
17988;DHT22;9119;50.932;5.342;2023-07-09T03:17:25;24.00;99.90
17988;DHT22;9119;50.932;5.342;2023-07-09T03:19:51;24.00;99.90
17988;DHT22;9119;50.932;5.342;2023-07-09T03:22:17;24.00;99.90
17988;DHT22;9119;50.932;5.342;2023-07-09T03:24:42;24.00;99.90
17988;DHT22;9119;50.932;5.342;2023-07-09T03:27:08;24.00;99.90
17988;DHT22;9119;50.932;5.342;2023-07-09T03:29:34;24.00;99.90
17988;DHT22;9119;50.932;5.342;2023-07-09T03:32:00;24.00;99.90
17988;DHT22;9119;50.932;5.342;2023-07-09T03:34:26;23.90;99.90
17988;DHT22;9119;50.932;5.342;2023-07-09T03:36:52;23.90;99.90
17988;DHT22;9119;50.932;5.342;2023-07-09T03:39:17;23.80;99.90
17988;DHT22;9119;50.932;5.342;2023-07-09T03:41:43;23.80;99.90
17988;DHT22;9119;50.932;5.342;2023-07-09T03:44:08;23.70;99.90
17988;DHT22;9119;50.932;5.342;2023-07-09T03:46:34;23.70;99.90
17988;DHT22;9119;50.932;5.342;2023-07-09T03:49:00;23.70;99.90
17988;DHT22;9119;50.932;5.342;2023-07-09T03:51:26;23.70;99.90
17988;DHT22;9119;50.932;5.342;2023-07-09T03:53:52;23.60;99.90
17988;DHT22;9119;50.932;5.342;2023-07-09T03:56:17;23.60;99.90
17988;DHT22;9119;50.932;5.342;2023-07-09T03:58:43;23.60;99.90
17988;DHT22;9119;50.932;5.342;2023-07-09T04:01:09;23.50;99.90
17988;DHT22;9119;50.932;5.342;2023-07-09T04:03:34;23.50;99.90
17988;DHT22;9119;50.932;5.342;2023-07-09T04:06:00;23.50;99.90
17988;DHT22;9119;50.932;5.342;2023-07-09T04:08:26;23.50;99.90
17988;DHT22;9119;50.932;5.342;2023-07-09T04:10:58;23.50;99.90
17988;DHT22;9119;50.932;5.342;2023-07-09T04:13:24;23.50;99.90
17988;DHT22;9119;50.932;5.342;2023-07-09T04:15:50;23.50;99.90
17988;DHT22;9119;50.932;5.342;2023-07-09T04:18:15;23.50;99.90
17988;DHT22;9119;50.932;5.342;2023-07-09T04:20:41;23.50;99.90
17988;DHT22;9119;50.932;5.342;2023-07-09T04:23:08;23.40;99.90
17988;DHT22;9119;50.932;5.342;2023-07-09T04:25:33;23.40;99.90
17988;DHT22;9119;50.932;5.342;2023-07-09T04:27:59;23.30;99.90
17988;DHT22;9119;50.932;5.342;2023-07-09T04:30:25;23.20;99.90
17988;DHT22;9119;50.932;5.342;2023-07-09T04:32:50;23.20;99.90
17988;DHT22;9119;50.932;5.342;2023-07-09T04:35:16;23.20;99.90
17988;DHT22;9119;50.932;5.342;2023-07-09T04:37:42;23.20;99.90
17988;DHT22;9119;50.932;5.342;2023-07-09T04:40:09;23.40;99.90
17988;DHT22;9119;50.932;5.342;2023-07-09T04:42:39;23.40;99.90
17988;DHT22;9119;50.932;5.342;2023-07-09T04:45:05;23.30;99.90
17988;DHT22;9119;50.932;5.342;2023-07-09T04:47:31;23.40;99.90
17988;DHT22;9119;50.932;5.342;2023-07-09T04:49:57;23.30;99.90
17988;DHT22;9119;50.932;5.342;2023-07-09T04:52:22;23.30;99.90
17988;DHT22;9119;50.932;5.342;2023-07-09T04:54:48;23.20;99.90
17988;DHT22;9119;50.932;5.342;2023-07-09T04:57:15;23.20;99.90
17988;DHT22;9119;50.932;5.342;2023-07-09T04:59:41;23.20;99.90
17988;DHT22;9119;50.932;5.342;2023-07-09T05:02:07;23.30;99.90
17988;DHT22;9119;50.932;5.342;2023-07-09T05:04:33;23.30;99.90
17988;DHT22;9119;50.932;5.342;2023-07-09T05:06:59;23.40;99.90
17988;DHT22;9119;50.932;5.342;2023-07-09T05:09:25;23.50;99.90
17988;DHT22;9119;50.932;5.342;2023-07-09T05:11:51;23.50;99.90
17988;DHT22;9119;50.932;5.342;2023-07-09T05:14:17;23.60;99.90
17988;DHT22;9119;50.932;5.342;2023-07-09T05:16:43;23.70;99.90
17988;DHT22;9119;50.932;5.342;2023-07-09T05:19:09;23.60;99.90
17988;DHT22;9119;50.932;5.342;2023-07-09T05:21:35;23.70;99.90
17988;DHT22;9119;50.932;5.342;2023-07-09T05:24:01;23.70;99.90
17988;DHT22;9119;50.932;5.342;2023-07-09T05:26:27;23.70;99.90
17988;DHT22;9119;50.932;5.342;2023-07-09T05:28:52;23.70;99.90
17988;DHT22;9119;50.932;5.342;2023-07-09T05:31:18;23.80;99.90
17988;DHT22;9119;50.932;5.342;2023-07-09T05:33:44;23.80;99.90
17988;DHT22;9119;50.932;5.342;2023-07-09T05:36:10;23.80;99.90
17988;DHT22;9119;50.932;5.342;2023-07-09T05:38:44;23.90;99.90
17988;DHT22;9119;50.932;5.342;2023-07-09T05:41:12;24.00;99.90
17988;DHT22;9119;50.932;5.342;2023-07-09T05:43:38;24.00;99.90
17988;DHT22;9119;50.932;5.342;2023-07-09T05:46:05;24.10;99.90
17988;DHT22;9119;50.932;5.342;2023-07-09T05:48:31;24.20;99.90
17988;DHT22;9119;50.932;5.342;2023-07-09T05:50:57;24.30;99.90
17988;DHT22;9119;50.932;5.342;2023-07-09T05:53:23;24.50;99.90
17988;DHT22;9119;50.932;5.342;2023-07-09T05:55:52;24.60;99.90
17988;DHT22;9119;50.932;5.342;2023-07-09T05:58:17;24.70;99.90
17988;DHT22;9119;50.932;5.342;2023-07-09T06:00:43;24.70;99.90
17988;DHT22;9119;50.932;5.342;2023-07-09T06:03:09;25.10;99.90
17988;DHT22;9119;50.932;5.342;2023-07-09T06:05:35;25.60;99.90
17988;DHT22;9119;50.932;5.342;2023-07-09T06:08:01;25.80;99.90
17988;DHT22;9119;50.932;5.342;2023-07-09T06:10:26;25.70;99.90
17988;DHT22;9119;50.932;5.342;2023-07-09T06:12:52;25.80;99.90
17988;DHT22;9119;50.932;5.342;2023-07-09T06:15:18;26.00;99.90
17988;DHT22;9119;50.932;5.342;2023-07-09T06:17:44;26.00;99.90
17988;DHT22;9119;50.932;5.342;2023-07-09T06:20:10;25.90;99.90
17988;DHT22;9119;50.932;5.342;2023-07-09T06:22:36;26.00;99.90
17988;DHT22;9119;50.932;5.342;2023-07-09T06:25:02;26.20;99.90
17988;DHT22;9119;50.932;5.342;2023-07-09T06:27:27;26.20;99.90
17988;DHT22;9119;50.932;5.342;2023-07-09T06:29:53;26.20;99.90
17988;DHT22;9119;50.932;5.342;2023-07-09T06:32:19;26.20;99.90
17988;DHT22;9119;50.932;5.342;2023-07-09T06:34:45;26.20;99.90
17988;DHT22;9119;50.932;5.342;2023-07-09T06:37:10;26.30;99.90
17988;DHT22;9119;50.932;5.342;2023-07-09T06:39:36;26.30;99.90
17988;DHT22;9119;50.932;5.342;2023-07-09T06:42:03;26.40;99.90
17988;DHT22;9119;50.932;5.342;2023-07-09T06:44:29;26.60;99.90
17988;DHT22;9119;50.932;5.342;2023-07-09T06:46:55;26.60;99.90
17988;DHT22;9119;50.932;5.342;2023-07-09T06:49:21;26.60;99.90
17988;DHT22;9119;50.932;5.342;2023-07-09T06:51:46;26.80;99.90
17988;DHT22;9119;50.932;5.342;2023-07-09T06:54:13;26.90;99.90
17988;DHT22;9119;50.932;5.342;2023-07-09T06:56:41;27.00;99.90
17988;DHT22;9119;50.932;5.342;2023-07-09T06:59:10;27.10;99.90
17988;DHT22;9119;50.932;5.342;2023-07-09T07:01:35;27.10;99.90
17988;DHT22;9119;50.932;5.342;2023-07-09T07:04:01;27.20;99.90
17988;DHT22;9119;50.932;5.342;2023-07-09T07:06:27;27.40;99.90
17988;DHT22;9119;50.932;5.342;2023-07-09T07:08:52;27.40;99.90
17988;DHT22;9119;50.932;5.342;2023-07-09T07:11:18;27.50;99.90
17988;DHT22;9119;50.932;5.342;2023-07-09T07:13:44;27.70;99.90
17988;DHT22;9119;50.932;5.342;2023-07-09T07:16:12;27.80;99.90
17988;DHT22;9119;50.932;5.342;2023-07-09T07:18:38;27.90;99.90
17988;DHT22;9119;50.932;5.342;2023-07-09T07:21:04;28.00;99.90
17988;DHT22;9119;50.932;5.342;2023-07-09T07:23:31;28.00;99.90
17988;DHT22;9119;50.932;5.342;2023-07-09T07:25:57;28.10;99.90
17988;DHT22;9119;50.932;5.342;2023-07-09T07:28:25;28.30;99.90
17988;DHT22;9119;50.932;5.342;2023-07-09T07:31:02;28.30;99.90
17988;DHT22;9119;50.932;5.342;2023-07-09T07:33:28;28.20;99.90
17988;DHT22;9119;50.932;5.342;2023-07-09T07:35:54;28.10;99.90
17988;DHT22;9119;50.932;5.342;2023-07-09T07:38:20;28.20;99.90
17988;DHT22;9119;50.932;5.342;2023-07-09T07:40:45;28.40;99.90
17988;DHT22;9119;50.932;5.342;2023-07-09T07:43:11;28.50;99.90
17988;DHT22;9119;50.932;5.342;2023-07-09T07:45:41;28.50;99.90
17988;DHT22;9119;50.932;5.342;2023-07-09T07:48:06;28.60;99.90
17988;DHT22;9119;50.932;5.342;2023-07-09T07:50:32;28.60;99.90
17988;DHT22;9119;50.932;5.342;2023-07-09T07:52:58;28.40;99.90
17988;DHT22;9119;50.932;5.342;2023-07-09T07:55:23;28.50;99.90
17988;DHT22;9119;50.932;5.342;2023-07-09T07:57:49;28.60;99.90
17988;DHT22;9119;50.932;5.342;2023-07-09T08:00:15;28.50;99.90
17988;DHT22;9119;50.932;5.342;2023-07-09T08:02:41;28.40;99.90
17988;DHT22;9119;50.932;5.342;2023-07-09T08:05:07;28.20;99.90
17988;DHT22;9119;50.932;5.342;2023-07-09T08:07:33;28.40;99.90
17988;DHT22;9119;50.932;5.342;2023-07-09T08:09:58;28.60;99.90
17988;DHT22;9119;50.932;5.342;2023-07-09T08:12:24;28.70;99.90
17988;DHT22;9119;50.932;5.342;2023-07-09T08:14:50;28.80;99.90
17988;DHT22;9119;50.932;5.342;2023-07-09T08:17:16;28.70;99.90
17988;DHT22;9119;50.932;5.342;2023-07-09T08:19:46;28.80;99.90
17988;DHT22;9119;50.932;5.342;2023-07-09T08:22:12;28.80;99.90
17988;DHT22;9119;50.932;5.342;2023-07-09T08:24:38;28.70;99.90
17988;DHT22;9119;50.932;5.342;2023-07-09T08:27:07;28.90;99.90
17988;DHT22;9119;50.932;5.342;2023-07-09T08:29:38;29.10;99.90
17988;DHT22;9119;50.932;5.342;2023-07-09T08:32:08;29.10;99.90
17988;DHT22;9119;50.932;5.342;2023-07-09T08:34:34;29.10;99.90
17988;DHT22;9119;50.932;5.342;2023-07-09T08:37:00;29.20;99.90
17988;DHT22;9119;50.932;5.342;2023-07-09T08:39:26;29.40;99.90
17988;DHT22;9119;50.932;5.342;2023-07-09T08:41:58;29.50;99.90
17988;DHT22;9119;50.932;5.342;2023-07-09T08:44:41;29.70;99.90
17988;DHT22;9119;50.932;5.342;2023-07-09T08:47:33;29.60;99.90
17988;DHT22;9119;50.932;5.342;2023-07-09T08:50:05;29.50;99.90
17988;DHT22;9119;50.932;5.342;2023-07-09T08:52:53;29.50;99.90
17988;DHT22;9119;50.932;5.342;2023-07-09T08:55:23;29.50;99.90
17988;DHT22;9119;50.932;5.342;2023-07-09T08:58:10;29.40;99.90
17988;DHT22;9119;50.932;5.342;2023-07-09T09:00:55;29.60;99.90
17988;DHT22;9119;50.932;5.342;2023-07-09T09:03:44;29.80;99.90
17988;DHT22;9119;50.932;5.342;2023-07-09T09:06:17;29.80;99.90
17988;DHT22;9119;50.932;5.342;2023-07-09T09:11:29;30.30;99.90
17988;DHT22;9119;50.932;5.342;2023-07-09T09:14:01;30.50;99.90
17988;DHT22;9119;50.932;5.342;2023-07-09T09:16:32;30.60;99.90
17988;DHT22;9119;50.932;5.342;2023-07-09T09:19:00;30.60;99.90
17988;DHT22;9119;50.932;5.342;2023-07-09T09:21:33;30.40;99.90
17988;DHT22;9119;50.932;5.342;2023-07-09T09:24:15;30.50;99.90
17988;DHT22;9119;50.932;5.342;2023-07-09T09:26:43;30.80;99.90
17988;DHT22;9119;50.932;5.342;2023-07-09T09:29:14;31.00;99.90
17988;DHT22;9119;50.932;5.342;2023-07-09T09:31:41;31.10;99.90
17988;DHT22;9119;50.932;5.342;2023-07-09T09:34:27;31.30;99.90
17988;DHT22;9119;50.932;5.342;2023-07-09T09:36:58;31.50;99.90
17988;DHT22;9119;50.932;5.342;2023-07-09T09:39:26;31.90;99.90
17988;DHT22;9119;50.932;5.342;2023-07-09T09:41:57;32.60;99.90
17988;DHT22;9119;50.932;5.342;2023-07-09T09:44:28;32.70;99.90
17988;DHT22;9119;50.932;5.342;2023-07-09T09:46:57;32.90;99.90
17988;DHT22;9119;50.932;5.342;2023-07-09T09:49:23;33.20;99.90
17988;DHT22;9119;50.932;5.342;2023-07-09T09:51:49;33.40;99.90
17988;DHT22;9119;50.932;5.342;2023-07-09T09:54:26;33.70;99.90
17988;DHT22;9119;50.932;5.342;2023-07-09T09:56:53;33.60;99.90
17988;DHT22;9119;50.932;5.342;2023-07-09T09:59:31;33.80;99.90
17988;DHT22;9119;50.932;5.342;2023-07-09T10:01:59;34.00;99.90
17988;DHT22;9119;50.932;5.342;2023-07-09T10:04:26;34.10;99.90
17988;DHT22;9119;50.932;5.342;2023-07-09T10:06:56;34.10;99.90
17988;DHT22;9119;50.932;5.342;2023-07-09T10:17:35;35.00;99.90
17988;DHT22;9119;50.932;5.342;2023-07-09T10:20:03;35.40;99.90
17988;DHT22;9119;50.932;5.342;2023-07-09T10:25:47;35.40;99.90
17988;DHT22;9119;50.932;5.342;2023-07-09T10:28:21;35.10;99.90
17988;DHT22;9119;50.932;5.342;2023-07-09T10:33:35;35.60;99.90
17988;DHT22;9119;50.932;5.342;2023-07-09T10:39:03;35.40;99.90
17988;DHT22;9119;50.932;5.342;2023-07-09T10:41:31;35.40;99.90
17988;DHT22;9119;50.932;5.342;2023-07-09T10:46:43;35.20;99.90
17988;DHT22;9119;50.932;5.342;2023-07-09T10:49:13;35.30;99.90
17988;DHT22;9119;50.932;5.342;2023-07-09T10:56:56;35.10;99.90
17988;DHT22;9119;50.932;5.342;2023-07-09T10:59:30;35.20;99.90
17988;DHT22;9119;50.932;5.342;2023-07-09T11:02:06;35.30;99.90
17988;DHT22;9119;50.932;5.342;2023-07-09T11:04:47;35.00;99.90
17988;DHT22;9119;50.932;5.342;2023-07-09T11:07:18;34.40;99.90
17988;DHT22;9119;50.932;5.342;2023-07-09T11:09:47;34.60;99.90
17988;DHT22;9119;50.932;5.342;2023-07-09T11:12:19;34.60;99.90
17988;DHT22;9119;50.932;5.342;2023-07-09T11:17:40;34.60;99.90
17988;DHT22;9119;50.932;5.342;2023-07-09T11:20:23;34.30;99.90
17988;DHT22;9119;50.932;5.342;2023-07-09T11:23:22;34.30;99.90
17988;DHT22;9119;50.932;5.342;2023-07-09T11:26:02;34.30;99.90
17988;DHT22;9119;50.932;5.342;2023-07-09T11:28:35;33.80;99.90
17988;DHT22;9119;50.932;5.342;2023-07-09T11:31:17;33.60;99.90
17988;DHT22;9119;50.932;5.342;2023-07-09T11:33:49;33.50;99.90
17988;DHT22;9119;50.932;5.342;2023-07-09T11:36:25;33.50;99.90
17988;DHT22;9119;50.932;5.342;2023-07-09T11:38:51;33.40;99.90
17988;DHT22;9119;50.932;5.342;2023-07-09T11:41:39;32.90;99.90
17988;DHT22;9119;50.932;5.342;2023-07-09T11:44:27;32.80;99.90
17988;DHT22;9119;50.932;5.342;2023-07-09T11:47:13;32.80;99.90
17988;DHT22;9119;50.932;5.342;2023-07-09T11:50:03;32.60;99.90
17988;DHT22;9119;50.932;5.342;2023-07-09T11:52:52;32.70;99.90
17988;DHT22;9119;50.932;5.342;2023-07-09T11:55:26;32.50;99.90
17988;DHT22;9119;50.932;5.342;2023-07-09T11:57:58;32.40;99.90
17988;DHT22;9119;50.932;5.342;2023-07-09T12:00:39;32.40;99.90
17988;DHT22;9119;50.932;5.342;2023-07-09T12:03:15;32.10;99.90
17988;DHT22;9119;50.932;5.342;2023-07-09T12:05:50;32.00;99.90
17988;DHT22;9119;50.932;5.342;2023-07-09T12:08:17;31.80;99.90
17988;DHT22;9119;50.932;5.342;2023-07-09T12:10:44;31.50;99.90
17988;DHT22;9119;50.932;5.342;2023-07-09T12:13:11;31.30;99.90
17988;DHT22;9119;50.932;5.342;2023-07-09T12:15:39;31.40;99.90
17988;DHT22;9119;50.932;5.342;2023-07-09T12:18:12;31.10;99.90
17988;DHT22;9119;50.932;5.342;2023-07-09T12:20:38;30.90;99.90
17988;DHT22;9119;50.932;5.342;2023-07-09T12:23:27;30.80;99.90
17988;DHT22;9119;50.932;5.342;2023-07-09T12:25:54;30.60;99.90
17988;DHT22;9119;50.932;5.342;2023-07-09T12:28:21;30.50;99.90
17988;DHT22;9119;50.932;5.342;2023-07-09T12:30:49;30.20;99.90
17988;DHT22;9119;50.932;5.342;2023-07-09T12:33:24;30.20;99.90
17988;DHT22;9119;50.932;5.342;2023-07-09T12:35:59;30.20;99.90
17988;DHT22;9119;50.932;5.342;2023-07-09T12:38:38;29.90;99.90
17988;DHT22;9119;50.932;5.342;2023-07-09T12:41:06;29.70;99.90
17988;DHT22;9119;50.932;5.342;2023-07-09T12:43:42;29.60;99.90
17988;DHT22;9119;50.932;5.342;2023-07-09T12:46:08;29.50;99.90
17988;DHT22;9119;50.932;5.342;2023-07-09T12:48:37;29.30;99.90
17988;DHT22;9119;50.932;5.342;2023-07-09T12:51:07;29.30;99.90
17988;DHT22;9119;50.932;5.342;2023-07-09T12:53:35;28.80;99.90
17988;DHT22;9119;50.932;5.342;2023-07-09T12:56:01;28.70;99.90
17988;DHT22;9119;50.932;5.342;2023-07-09T12:58:32;28.40;99.90
17988;DHT22;9119;50.932;5.342;2023-07-09T13:01:06;28.20;99.90
17988;DHT22;9119;50.932;5.342;2023-07-09T13:03:33;28.20;99.90
17988;DHT22;9119;50.932;5.342;2023-07-09T13:06:04;28.10;99.90
17988;DHT22;9119;50.932;5.342;2023-07-09T13:08:39;27.90;99.90
17988;DHT22;9119;50.932;5.342;2023-07-09T13:11:15;27.70;99.90
17988;DHT22;9119;50.932;5.342;2023-07-09T13:13:40;27.50;99.90
17988;DHT22;9119;50.932;5.342;2023-07-09T13:16:06;27.00;99.90
17988;DHT22;9119;50.932;5.342;2023-07-09T13:18:32;26.70;99.90
17988;DHT22;9119;50.932;5.342;2023-07-09T13:20:58;26.60;99.90
17988;DHT22;9119;50.932;5.342;2023-07-09T13:23:29;26.50;99.90
17988;DHT22;9119;50.932;5.342;2023-07-09T13:25:58;26.30;99.90
17988;DHT22;9119;50.932;5.342;2023-07-09T13:28:31;26.20;99.90
17988;DHT22;9119;50.932;5.342;2023-07-09T13:31:07;26.20;99.90
17988;DHT22;9119;50.932;5.342;2023-07-09T13:33:35;25.80;99.90
17988;DHT22;9119;50.932;5.342;2023-07-09T13:36:02;25.60;99.90
17988;DHT22;9119;50.932;5.342;2023-07-09T13:38:28;25.40;99.90
17988;DHT22;9119;50.932;5.342;2023-07-09T13:40:57;25.40;99.90
17988;DHT22;9119;50.932;5.342;2023-07-09T13:43:35;25.70;99.90
17988;DHT22;9119;50.932;5.342;2023-07-09T13:46:03;25.60;99.90
17988;DHT22;9119;50.932;5.342;2023-07-09T13:48:30;25.70;99.90
17988;DHT22;9119;50.932;5.342;2023-07-09T13:50:57;25.80;99.90
17988;DHT22;9119;50.932;5.342;2023-07-09T13:53:32;26.30;99.90
17988;DHT22;9119;50.932;5.342;2023-07-09T13:55:58;26.20;99.90
17988;DHT22;9119;50.932;5.342;2023-07-09T13:58:26;26.20;99.90
17988;DHT22;9119;50.932;5.342;2023-07-09T14:00:59;26.60;99.90
17988;DHT22;9119;50.932;5.342;2023-07-09T14:03:31;26.70;99.90
17988;DHT22;9119;50.932;5.342;2023-07-09T14:05:57;26.60;99.90
17988;DHT22;9119;50.932;5.342;2023-07-09T14:08:23;26.70;99.90
17988;DHT22;9119;50.932;5.342;2023-07-09T14:10:49;26.70;99.90
17988;DHT22;9119;50.932;5.342;2023-07-09T14:13:18;26.70;99.90
17988;DHT22;9119;50.932;5.342;2023-07-09T14:15:44;26.80;99.90
17988;DHT22;9119;50.932;5.342;2023-07-09T14:18:16;27.00;99.90
17988;DHT22;9119;50.932;5.342;2023-07-09T14:20:42;26.70;99.90
17988;DHT22;9119;50.932;5.342;2023-07-09T14:23:11;26.40;99.90
17988;DHT22;9119;50.932;5.342;2023-07-09T14:25:37;26.50;99.90
17988;DHT22;9119;50.932;5.342;2023-07-09T14:28:17;26.80;99.90
17988;DHT22;9119;50.932;5.342;2023-07-09T14:30:45;26.60;99.90
17988;DHT22;9119;50.932;5.342;2023-07-09T14:33:20;26.50;99.90
17988;DHT22;9119;50.932;5.342;2023-07-09T14:35:46;26.40;99.90
17988;DHT22;9119;50.932;5.342;2023-07-09T14:38:21;26.30;99.90
17988;DHT22;9119;50.932;5.342;2023-07-09T14:40:48;26.50;99.90
17988;DHT22;9119;50.932;5.342;2023-07-09T14:43:14;26.50;99.90
17988;DHT22;9119;50.932;5.342;2023-07-09T14:45:40;26.20;99.90
17988;DHT22;9119;50.932;5.342;2023-07-09T14:50:36;26.30;99.90
17988;DHT22;9119;50.932;5.342;2023-07-09T14:53:02;26.60;99.90
17988;DHT22;9119;50.932;5.342;2023-07-09T14:55:28;26.90;99.90
17988;DHT22;9119;50.932;5.342;2023-07-09T14:57:55;27.10;99.90
17988;DHT22;9119;50.932;5.342;2023-07-09T15:00:28;27.40;99.90
17988;DHT22;9119;50.932;5.342;2023-07-09T15:02:54;27.80;99.90
17988;DHT22;9119;50.932;5.342;2023-07-09T15:05:23;27.90;99.90
17988;DHT22;9119;50.932;5.342;2023-07-09T15:07:49;28.10;99.90
17988;DHT22;9119;50.932;5.342;2023-07-09T15:10:17;28.30;99.90
17988;DHT22;9119;50.932;5.342;2023-07-09T15:12:45;28.50;99.90
17988;DHT22;9119;50.932;5.342;2023-07-09T15:15:24;28.50;99.90
17988;DHT22;9119;50.932;5.342;2023-07-09T15:17:51;28.40;99.90
17988;DHT22;9119;50.932;5.342;2023-07-09T15:20:17;28.20;99.90
17988;DHT22;9119;50.932;5.342;2023-07-09T15:22:44;27.90;99.90
17988;DHT22;9119;50.932;5.342;2023-07-09T15:25:16;27.90;99.90
17988;DHT22;9119;50.932;5.342;2023-07-09T15:27:43;27.80;99.90
17988;DHT22;9119;50.932;5.342;2023-07-09T15:30:17;27.80;99.90
17988;DHT22;9119;50.932;5.342;2023-07-09T15:32:45;27.80;99.90
17988;DHT22;9119;50.932;5.342;2023-07-09T15:35:12;27.90;99.90
17988;DHT22;9119;50.932;5.342;2023-07-09T15:37:39;28.30;99.90
17988;DHT22;9119;50.932;5.342;2023-07-09T15:40:20;29.20;99.90
17988;DHT22;9119;50.932;5.342;2023-07-09T15:42:55;29.90;99.90
17988;DHT22;9119;50.932;5.342;2023-07-09T15:45:25;30.40;99.90
17988;DHT22;9119;50.932;5.342;2023-07-09T15:47:52;31.20;99.90
17988;DHT22;9119;50.932;5.342;2023-07-09T15:50:26;31.90;99.90
17988;DHT22;9119;50.932;5.342;2023-07-09T15:52:54;32.20;99.90
17988;DHT22;9119;50.932;5.342;2023-07-09T15:55:23;32.20;99.90
17988;DHT22;9119;50.932;5.342;2023-07-09T15:57:51;32.20;99.90
17988;DHT22;9119;50.932;5.342;2023-07-09T16:00:27;31.90;99.90
17988;DHT22;9119;50.932;5.342;2023-07-09T16:02:55;31.40;99.90
17988;DHT22;9119;50.932;5.342;2023-07-09T16:05:24;31.00;99.90
17988;DHT22;9119;50.932;5.342;2023-07-09T16:07:55;30.70;99.90
17988;DHT22;9119;50.932;5.342;2023-07-09T16:10:23;30.60;99.90
17988;DHT22;9119;50.932;5.342;2023-07-09T16:12:53;30.50;99.90
17988;DHT22;9119;50.932;5.342;2023-07-09T16:15:20;30.90;99.90
17988;DHT22;9119;50.932;5.342;2023-07-09T16:17:50;31.70;99.90
17988;DHT22;9119;50.932;5.342;2023-07-09T16:20:20;31.20;99.90
17988;DHT22;9119;50.932;5.342;2023-07-09T16:22:50;30.40;99.90
17988;DHT22;9119;50.932;5.342;2023-07-09T16:25:29;30.00;99.90
17988;DHT22;9119;50.932;5.342;2023-07-09T16:27:56;30.20;99.90
17988;DHT22;9119;50.932;5.342;2023-07-09T16:30:24;30.00;99.90
17988;DHT22;9119;50.932;5.342;2023-07-09T16:32:51;30.10;99.90
17988;DHT22;9119;50.932;5.342;2023-07-09T16:35:18;30.20;99.90